Terminal Aerodrome Forecast
Issued by NWS Wilmington, NC

Current Version | Previous Version | Graphics & Text | Print | Product List | Glossary Off
Versions: 1 2 3 4 5 6 7 8 9 10 11 12 13 14 15 16 17 18

000
FTUS42 KILM 252327
TAFILM
TAF
KILM 252327Z 2600/2624 VRB05KT P6SM SCT060 SCT120
     FM261000 VRB03KT 6SM BR VCSH BKN040
     FM261400 02004KT P6SM VCSH BKN025 OVC100
     FM261900 04006KT 5SM -RA OVC015
     FM262200 02008KT 4SM RA BR OVC006=

USA.gov is the U.S. government's official web portal to all federal, state and local government web resources and services.